createdAt,value
2018-04-18T06:07:07.657Z,6.30
2018-04-18T06:09:35.433Z,8.70
2018-04-18T06:12:03.227Z,9.37
2018-04-18T06:14:31.133Z,10.20
2018-04-18T06:16:59.674Z,10.73
2018-04-18T06:19:27.418Z,10.30
2018-04-18T06:21:55.186Z,10.83
2018-04-18T06:24:23.065Z,10.30
2018-04-18T06:26:50.781Z,11.83
2018-04-18T06:29:18.735Z,11.53
2018-04-18T06:31:46.554Z,12.53
2018-04-18T06:34:14.363Z,11.93
2018-04-18T06:36:42.271Z,13.07
2018-04-18T06:39:10.089Z,15.67
2018-04-18T06:41:37.896Z,15.37
2018-04-18T06:44:05.716Z,13.17
2018-04-18T06:46:33.527Z,11.87
2018-04-18T06:49:01.335Z,11.23
2018-04-18T06:51:29.846Z,10.43
2018-04-18T06:53:57.712Z,9.73
2018-04-18T06:56:25.519Z,9.57
2018-04-18T06:58:53.388Z,9.53
2018-04-18T07:01:21.127Z,10.13
2018-04-18T07:03:49.084Z,9.10
2018-04-18T07:06:16.966Z,9.20
2018-04-18T07:08:44.693Z,10.50
2018-04-18T07:11:12.554Z,10.47
2018-04-18T07:13:40.499Z,9.67
2018-04-18T07:16:09.200Z,10.13
2018-04-18T07:18:37.046Z,9.60
2018-04-18T07:21:05.691Z,9.33
2018-04-18T07:23:33.598Z,9.50
2018-04-18T07:26:02.225Z,8.63
2018-04-18T07:28:30.055Z,9.27
2018-04-18T07:30:57.887Z,8.63
2018-04-18T07:33:25.747Z,9.30
2018-04-18T07:35:53.547Z,8.63
2018-04-18T07:38:21.498Z,8.47
2018-04-18T07:40:49.450Z,8.33
2018-04-18T07:43:17.265Z,7.87
2018-04-18T07:45:45.302Z,7.13
2018-04-18T07:48:13.932Z,6.83
2018-04-18T07:50:41.697Z,6.37
2018-04-18T07:53:09.541Z,8.13
2018-04-18T07:55:37.349Z,7.00
2018-04-18T07:58:05.157Z,7.10
2018-04-18T08:00:32.934Z,6.70
2018-04-18T08:03:00.884Z,6.87
2018-04-18T08:05:28.738Z,6.87
2018-04-18T08:07:56.603Z,7.17
2018-04-18T08:10:24.392Z,7.53
2018-04-18T08:12:52.326Z,7.20
2018-04-18T08:15:21.006Z,8.23
2018-04-18T08:17:48.832Z,8.03
2018-04-18T08:20:16.704Z,7.77
2018-04-18T08:22:44.545Z,7.03
2018-04-18T08:25:12.470Z,7.40
2018-04-18T08:27:40.252Z,6.77
2018-04-18T08:30:08.028Z,6.57
2018-04-18T08:32:35.911Z,6.87
2018-04-18T08:35:03.675Z,5.80
2018-04-18T08:37:31.536Z,6.63
2018-04-18T08:39:59.359Z,5.93
2018-04-18T08:42:27.226Z,6.27
2018-04-18T08:44:55.212Z,5.73
2018-04-18T08:47:23.029Z,7.13
2018-04-18T08:49:50.777Z,7.50
2018-04-18T08:52:18.512Z,7.03
2018-04-18T08:54:46.392Z,7.40
2018-04-18T08:57:14.190Z,6.87
2018-04-18T08:59:42.757Z,5.80
2018-04-18T09:02:10.723Z,6.73
2018-04-18T09:04:38.515Z,5.60
2018-04-18T09:07:06.372Z,5.97
2018-04-18T09:09:34.181Z,5.20
2018-04-18T09:12:01.968Z,5.47
2018-04-18T09:14:29.822Z,5.93
2018-04-18T09:16:57.624Z,6.00
2018-04-18T09:19:26.351Z,6.67
2018-04-18T09:21:54.126Z,5.87
2018-04-18T09:24:21.996Z,5.93
2018-04-18T09:26:49.828Z,5.40
2018-04-18T09:29:17.600Z,5.50
2018-04-18T09:31:45.306Z,4.67
2018-04-18T09:34:13.130Z,5.00
2018-04-18T09:36:41.032Z,5.13
2018-04-18T09:39:08.778Z,4.93
2018-04-18T09:41:36.652Z,4.17
2018-04-18T09:44:04.486Z,4.00
2018-04-18T09:46:32.370Z,4.10
2018-04-18T09:49:00.156Z,4.50
2018-04-18T09:51:28.022Z,4.33
2018-04-18T09:53:55.752Z,4.13
2018-04-18T09:56:23.519Z,3.93
2018-04-18T09:58:51.312Z,3.87
2018-04-18T10:01:19.920Z,3.77
2018-04-18T10:03:48.469Z,3.60
2018-04-18T10:06:16.252Z,3.50
2018-04-18T10:08:44.939Z,3.40
2018-04-18T10:11:13.497Z,3.33
2018-04-18T10:13:41.293Z,3.43
2018-04-18T10:16:09.128Z,3.37
2018-04-18T10:18:36.938Z,3.17
2018-04-18T10:21:04.801Z,3.60
2018-04-18T10:23:32.725Z,3.53
2018-04-18T10:26:00.513Z,3.00
2018-04-18T10:28:28.304Z,3.00
2018-04-18T10:30:56.249Z,2.70
2018-04-18T10:33:24.061Z,3.20
2018-04-18T10:35:51.929Z,3.23
2018-04-18T10:38:19.780Z,3.00
2018-04-18T10:40:47.581Z,3.53
2018-04-18T10:43:15.407Z,3.20
2018-04-18T10:45:43.218Z,2.70
2018-04-18T10:48:11.904Z,2.77
2018-04-18T10:50:40.504Z,2.60
2018-04-18T10:53:08.218Z,2.53
2018-04-18T10:55:36.027Z,2.57
2018-04-18T10:58:03.856Z,2.30
2018-04-18T11:00:31.731Z,2.57
2018-04-18T11:02:59.692Z,2.40
2018-04-18T11:05:27.684Z,2.80
2018-04-18T11:07:56.286Z,2.80
2018-04-18T11:10:24.249Z,2.50
2018-04-18T11:12:52.180Z,2.37
2018-04-18T11:15:20.815Z,2.70
2018-04-18T11:17:48.677Z,2.50
2018-04-18T11:20:16.476Z,2.40
2018-04-18T11:22:44.287Z,2.20
2018-04-18T11:25:12.153Z,2.30
2018-04-18T11:27:40.001Z,2.50
2018-04-18T11:30:08.572Z,2.20
2018-04-18T11:32:37.260Z,2.10
2018-04-18T11:35:05.735Z,2.10
2018-04-18T11:37:34.387Z,2.33
2018-04-18T11:40:02.223Z,2.10
2018-04-18T11:42:29.999Z,1.90
2018-04-18T11:44:57.770Z,2.37
2018-04-18T11:47:25.577Z,2.00
2018-04-18T11:49:54.074Z,2.20
2018-04-18T11:52:21.947Z,2.40
2018-04-18T11:54:49.792Z,2.87
2018-04-18T11:57:17.653Z,2.10
2018-04-18T11:59:46.396Z,2.10
2018-04-18T12:02:14.174Z,2.40
2018-04-18T12:04:42.009Z,2.77
2018-04-18T12:07:09.865Z,2.23
2018-04-18T12:09:37.683Z,2.83
2018-04-18T12:12:05.489Z,2.80
2018-04-18T12:14:33.584Z,2.70
2018-04-18T12:17:01.469Z,2.20
2018-04-18T12:19:29.442Z,2.43
2018-04-18T12:21:57.234Z,2.63
2018-04-18T12:24:25.098Z,2.57
2018-04-18T12:26:53.786Z,2.30
2018-04-18T12:29:21.649Z,2.57
2018-04-18T12:31:49.473Z,2.50
2018-04-18T12:34:17.201Z,3.00
2018-04-18T12:36:44.982Z,2.77
2018-04-18T12:39:12.888Z,2.23
2018-04-18T12:41:41.479Z,2.90
2018-04-18T12:44:10.287Z,2.70
2018-04-18T12:46:38.203Z,2.40
2018-04-18T12:52:09.388Z,2.47
2018-04-18T12:54:38.023Z,2.90
2018-04-18T12:57:05.863Z,2.57
2018-04-18T12:59:33.603Z,2.83
2018-04-18T13:02:02.256Z,2.70
2018-04-18T13:04:30.151Z,3.00
2018-04-18T13:06:58.841Z,2.80
2018-04-18T13:09:26.667Z,2.37
2018-04-18T13:11:54.512Z,2.90
2018-04-18T13:14:22.235Z,3.20
2018-04-18T13:16:49.999Z,3.00
2018-04-18T13:19:17.779Z,3.17
2018-04-18T13:21:45.700Z,3.60
2018-04-18T13:24:13.723Z,3.80
2018-04-18T13:26:41.426Z,4.20
2018-04-18T13:29:09.375Z,4.60
2018-04-18T13:31:37.345Z,4.03
2018-04-18T13:34:05.279Z,4.53
2018-04-18T13:36:33.087Z,4.50
2018-04-18T13:39:00.962Z,5.10
2018-04-18T13:41:29.524Z,4.03
2018-04-18T13:43:57.348Z,3.90
2018-04-18T13:46:25.248Z,4.13
2018-04-18T13:48:52.983Z,4.10
2018-04-18T13:51:20.770Z,3.93
2018-04-18T13:53:48.709Z,4.20
2018-04-18T13:56:16.496Z,3.90
2018-04-18T13:58:44.406Z,4.50
2018-04-18T14:01:12.896Z,5.03
2018-04-18T14:03:40.718Z,4.03
2018-04-18T14:06:08.612Z,3.90
2018-04-18T14:08:37.296Z,4.30
2018-04-18T14:11:05.885Z,3.80
2018-04-18T14:13:33.667Z,4.33
2018-04-18T14:16:01.457Z,4.30
2018-04-18T14:18:29.319Z,4.60
2018-04-18T14:20:57.149Z,4.70
2018-04-18T14:23:25.093Z,4.43
2018-04-18T14:25:52.894Z,4.57
2018-04-18T14:28:20.947Z,4.43
2018-04-18T14:30:49.021Z,4.47
2018-04-18T14:33:16.778Z,5.03
2018-04-18T14:35:44.534Z,4.70
2018-04-18T14:38:13.076Z,4.43
2018-04-18T14:40:40.961Z,4.27
2018-04-18T14:43:08.985Z,5.50
2018-04-18T14:45:36.911Z,5.23
2018-04-18T14:48:05.486Z,4.57
2018-04-18T14:50:33.341Z,4.40
2018-04-18T14:53:01.462Z,4.40
2018-04-18T14:55:29.284Z,5.17
2018-04-18T14:57:57.918Z,4.80
2018-04-18T15:00:26.740Z,4.77
2018-04-18T15:02:54.598Z,4.90
2018-04-18T15:05:22.401Z,5.43
2018-04-18T15:07:50.269Z,5.07
2018-04-18T15:10:18.032Z,4.50
2018-04-18T15:12:45.937Z,4.67
2018-04-18T15:15:13.809Z,4.40
2018-04-18T15:17:41.732Z,4.10
2018-04-18T15:20:09.506Z,4.40
2018-04-18T15:22:37.282Z,3.80
2018-04-18T15:25:05.132Z,3.80
2018-04-18T15:27:32.958Z,3.70
2018-04-18T15:30:01.642Z,3.33
2018-04-18T15:32:30.175Z,3.70
2018-04-18T15:34:57.911Z,3.37
2018-04-18T15:37:25.835Z,3.53
2018-04-18T15:39:53.578Z,3.70
2018-04-18T15:42:21.383Z,3.07
2018-04-18T15:44:50.033Z,3.17
2018-04-18T15:47:17.899Z,2.73
2018-04-18T15:49:45.713Z,3.10
2018-04-18T15:52:13.518Z,3.83
2018-04-18T15:54:41.424Z,2.90
2018-04-18T15:57:10.080Z,3.33
2018-04-18T15:59:37.825Z,3.40
2018-04-18T16:02:05.710Z,3.60
2018-04-18T16:04:33.713Z,2.97
2018-04-18T16:07:02.317Z,2.67
2018-04-18T16:09:30.231Z,3.00
2018-04-18T16:11:58.120Z,3.03
2018-04-18T16:14:26.830Z,2.90
2018-04-18T16:16:54.631Z,3.30
2018-04-18T16:19:22.590Z,3.13
2018-04-18T16:21:50.541Z,2.67
2018-04-18T16:24:18.425Z,3.10
2018-04-18T16:26:46.278Z,2.97
2018-04-18T16:29:14.145Z,3.07
2018-04-18T16:31:41.916Z,2.63
2018-04-18T16:34:09.868Z,2.40
2018-04-18T16:36:37.779Z,2.83
2018-04-18T16:39:06.436Z,2.50
2018-04-18T16:41:34.239Z,2.87
2018-04-18T16:44:02.834Z,2.57
2018-04-18T16:46:30.894Z,2.43
2018-04-18T16:48:59.601Z,2.67
2018-04-18T16:51:27.493Z,2.57
2018-04-18T16:53:55.321Z,2.70
2018-04-18T16:56:24.007Z,2.60
2018-04-18T16:58:51.816Z,2.40
2018-04-18T17:01:19.640Z,2.67
2018-04-18T17:03:47.615Z,2.40
2018-04-18T17:06:15.504Z,2.50
2018-04-18T17:08:43.404Z,2.70
2018-04-18T17:11:11.192Z,2.60
2018-04-18T17:13:39.911Z,2.33
2018-04-18T17:16:07.759Z,2.47
2018-04-18T17:18:35.822Z,2.50
2018-04-18T17:21:03.716Z,2.83
2018-04-18T17:23:31.663Z,2.50
2018-04-18T17:25:59.523Z,2.40
2018-04-18T17:28:27.363Z,2.57
2018-04-18T17:30:55.842Z,2.50
2018-04-18T17:33:24.536Z,2.50
2018-04-18T17:35:52.417Z,2.80
2018-04-18T17:38:20.277Z,2.40
2018-04-18T17:40:48.124Z,2.70
2018-04-18T17:43:16.655Z,2.53
2018-04-18T17:45:44.558Z,2.37
2018-04-18T17:48:12.399Z,2.13
2018-04-18T17:50:40.162Z,2.60
2018-04-18T17:53:08.073Z,2.40
2018-04-18T17:55:35.822Z,2.30
2018-04-18T17:58:04.379Z,2.60
2018-04-18T18:00:32.179Z,2.23
2018-04-18T18:03:00.082Z,2.30
2018-04-18T18:05:27.838Z,2.10
2018-04-18T18:07:55.591Z,2.57
2018-04-18T18:10:23.335Z,2.50
2018-04-18T18:12:51.111Z,2.37
2018-04-18T18:15:18.917Z,2.00
2018-04-18T18:17:46.720Z,2.67
2018-04-18T18:20:15.458Z,2.20
2018-04-18T18:22:43.408Z,2.30
2018-04-18T18:25:11.204Z,2.03
2018-04-18T18:27:38.908Z,2.30
2018-04-18T18:30:06.674Z,2.40
2018-04-18T18:32:34.468Z,2.30
2018-04-18T18:35:02.295Z,2.20
2018-04-18T18:37:30.147Z,2.20
2018-04-18T18:39:58.832Z,2.30
2018-04-18T18:42:27.372Z,2.30
2018-04-18T18:44:55.137Z,2.10
2018-04-18T18:47:22.981Z,2.23
2018-04-18T18:49:50.758Z,2.07
2018-04-18T18:52:18.512Z,2.40
2018-04-18T18:54:46.294Z,2.33
2018-04-18T18:57:14.284Z,2.10
2018-04-18T18:59:42.972Z,1.87
2018-04-18T19:02:11.684Z,2.07
2018-04-18T19:04:39.504Z,2.00
2018-04-18T19:07:07.392Z,1.80
2018-04-18T19:09:35.987Z,2.30
2018-04-18T19:12:03.792Z,2.10
2018-04-18T19:14:31.640Z,2.30
2018-04-18T19:16:59.374Z,2.07
2018-04-18T19:19:27.155Z,2.30
2018-04-18T19:21:54.919Z,2.03
2018-04-18T19:24:22.840Z,2.17
2018-04-18T19:26:50.653Z,2.10
2018-04-18T19:29:18.478Z,2.10
2018-04-18T19:31:47.234Z,2.17
2018-04-18T19:34:15.096Z,2.20
2018-04-18T19:36:43.035Z,1.90
2018-04-18T19:39:10.849Z,1.77
2018-04-18T19:41:39.463Z,1.80
2018-04-18T19:44:07.205Z,2.20
2018-04-18T19:46:35.916Z,2.37
2018-04-18T19:49:03.861Z,2.40
2018-04-18T19:51:32.378Z,2.03
2018-04-18T19:54:00.183Z,2.30
2018-04-18T19:56:28.009Z,1.90
2018-04-18T19:58:55.808Z,2.20
2018-04-18T20:01:23.667Z,2.53
2018-04-18T20:03:51.512Z,2.03
2018-04-18T20:06:19.478Z,2.40
2018-04-18T20:08:47.257Z,2.30
2018-04-18T20:11:15.064Z,1.87
2018-04-18T20:13:42.838Z,2.03
2018-04-18T20:16:10.626Z,2.00
2018-04-18T20:18:38.496Z,2.00
2018-04-18T20:21:06.330Z,2.23
2018-04-18T20:23:34.197Z,2.17
2018-04-18T20:26:01.955Z,2.00
2018-04-18T20:28:29.696Z,1.80
2018-04-18T20:30:58.194Z,1.97
2018-04-18T20:33:25.898Z,1.80
2018-04-18T20:35:53.751Z,1.83
2018-04-18T20:38:21.638Z,2.03
2018-04-18T20:40:49.435Z,2.37
2018-04-18T20:43:18.040Z,1.90
2018-04-18T20:45:45.777Z,2.00
2018-04-18T20:48:13.593Z,2.00
2018-04-18T20:50:41.433Z,2.00
2018-04-18T20:53:09.239Z,2.10
2018-04-18T20:55:36.995Z,1.80
2018-04-18T20:58:04.897Z,2.00
2018-04-18T21:00:34.537Z,1.77
2018-04-18T21:03:02.426Z,1.90
2018-04-18T21:05:30.222Z,1.83
2018-04-18T21:07:58.744Z,2.00
2018-04-18T21:10:26.517Z,1.87
2018-04-18T21:12:54.470Z,1.83
2018-04-18T21:15:22.347Z,1.80
2018-04-18T21:17:50.139Z,1.87
2018-04-18T21:20:17.984Z,1.90
2018-04-18T21:22:45.815Z,1.90
2018-04-18T21:25:13.698Z,1.80
2018-04-18T21:27:42.301Z,1.87
2018-04-18T21:30:10.106Z,2.03
2018-04-18T21:32:38.829Z,1.97
2018-04-18T21:35:06.770Z,2.10
2018-04-18T21:37:34.642Z,1.67
2018-04-18T21:40:02.386Z,2.00
2018-04-18T21:42:30.160Z,1.93
2018-04-18T21:44:58.018Z,1.90
2018-04-18T21:47:25.848Z,1.70
2018-04-18T21:49:53.699Z,1.80
2018-04-18T21:52:21.509Z,1.67
2018-04-18T21:54:50.029Z,1.90
2018-04-18T21:57:17.817Z,1.50
2018-04-18T21:59:45.544Z,1.83
2018-04-18T22:04:46.080Z,1.63
2018-04-18T22:07:13.966Z,1.80
2018-04-18T22:09:41.838Z,1.73
2018-04-18T22:12:09.729Z,1.80
2018-04-18T22:14:38.421Z,1.60
2018-04-18T22:17:06.294Z,1.70
2018-04-18T22:19:34.849Z,1.73
2018-04-18T22:22:02.715Z,1.80
2018-04-18T22:24:30.527Z,1.60
2018-04-18T22:26:58.465Z,1.73
2018-04-18T22:29:26.973Z,2.00
2018-04-18T22:31:54.702Z,1.73
2018-04-18T22:34:23.444Z,1.70
2018-04-18T22:36:51.363Z,1.80
2018-04-18T22:39:19.940Z,1.67
2018-04-18T22:41:48.600Z,1.77
2018-04-18T22:44:16.493Z,1.70
2018-04-18T22:46:45.138Z,1.80
2018-04-18T22:49:13.071Z,1.90
2018-04-18T22:51:41.023Z,1.60
2018-04-18T22:54:08.941Z,1.57
2018-04-18T22:56:36.709Z,1.70
2018-04-18T22:59:04.667Z,1.80
2018-04-18T23:01:32.499Z,2.07
2018-04-18T23:04:00.460Z,1.60
2018-04-18T23:06:28.313Z,1.80
2018-04-18T23:08:56.143Z,1.60
2018-04-18T23:11:24.139Z,1.90
2018-04-18T23:13:52.789Z,1.70
2018-04-18T23:16:20.638Z,1.73
2018-04-18T23:18:48.431Z,1.80
2018-04-18T23:21:16.201Z,1.67
2018-04-18T23:23:44.071Z,1.87
2018-04-18T23:26:12.693Z,1.70
2018-04-18T23:28:40.610Z,1.80
2018-04-18T23:31:08.448Z,1.70
2018-04-18T23:33:36.555Z,1.77
2018-04-18T23:36:04.410Z,1.67
2018-04-18T23:38:33.044Z,1.60
2018-04-18T23:41:00.942Z,1.63
2018-04-18T23:43:28.785Z,1.67
2018-04-18T23:45:56.721Z,1.57
2018-04-18T23:48:24.562Z,1.77
2018-04-18T23:50:53.162Z,1.80
2018-04-18T23:53:21.059Z,1.80
2018-04-18T23:55:48.906Z,1.80
2018-04-18T23:58:16.759Z,1.67
